Time,TemperatureF,DewpointF,PressureIn,WindDirection,WindDirectionDegrees,WindSpeedMPH,WindSpeedGustMPH,Humidity,HourlyPrecipIn,Conditions,Clouds,dailyrainin,SolarRadiationWatts/m^2,SoftwareType,DateUTC
2012-04-03 00:23:00,35.0,28.0,-100.00,ENE,69,5.0,6.0,76,0.00,,,0.00,1.000000,,2012-04-03 07:23:00,
2012-04-03 00:34:00,35.0,28.0,-100.00,ENE,69,5.0,6.0,76,0.00,,,0.00,1.000000,,2012-04-03 07:34:00,
2012-04-03 00:44:00,35.0,28.0,-100.00,ENE,69,5.0,6.0,76,0.00,,,0.00,1.000000,,2012-04-03 07:44:00,
2012-04-03 00:54:00,35.0,28.0,-100.00,ENE,69,5.0,6.0,76,0.00,,,0.00,1.000000,,2012-04-03 07:54:00,
2012-04-03 01:13:00,35.0,28.0,-100.00,ENE,75,3.0,5.0,76,0.00,,,0.00,1.000000,,2012-04-03 08:13:00,
2012-04-03 01:24:00,35.0,28.0,-100.00,ENE,75,3.0,5.0,76,0.00,,,0.00,1.000000,,2012-04-03 08:24:00,
2012-04-03 01:34:00,35.0,28.0,-100.00,ENE,75,3.0,5.0,76,0.00,,,0.00,1.000000,,2012-04-03 08:34:00,
2012-04-03 01:44:00,35.0,28.0,-100.00,ENE,75,3.0,5.0,76,0.00,,,0.00,1.000000,,2012-04-03 08:44:00,
2012-04-03 01:53:00,35.0,28.0,-100.00,ENE,75,3.0,5.0,76,0.00,,,0.00,1.000000,,2012-04-03 08:53:00,
2012-04-03 02:13:00,34.0,28.0,-100.00,East,97,2.0,4.0,79,0.00,,,0.00,1.000000,,2012-04-03 09:13:00,
2012-04-03 02:24:00,34.0,28.0,-100.00,East,97,2.0,4.0,79,0.00,,,0.00,1.000000,,2012-04-03 09:24:00,
2012-04-03 02:39:00,34.0,28.0,-100.00,East,97,2.0,4.0,79,0.00,,,0.00,1.000000,,2012-04-03 09:39:00,
2012-04-03 02:46:00,34.0,28.0,-100.00,East,97,2.0,4.0,79,0.00,,,0.00,1.000000,,2012-04-03 09:46:00,
2012-04-03 03:13:00,34.0,28.0,-100.00,ENE,61,3.0,4.0,77,0.00,,,0.00,1.000000,,2012-04-03 10:13:00,
2012-04-03 03:24:00,34.0,28.0,-100.00,ENE,61,3.0,4.0,77,0.00,,,0.00,1.000000,,2012-04-03 10:24:00,
2012-04-03 03:34:00,34.0,28.0,-100.00,ENE,61,3.0,4.0,77,0.00,,,0.00,1.000000,,2012-04-03 10:34:00,
2012-04-03 03:44:00,34.0,28.0,-100.00,ENE,61,3.0,4.0,77,0.00,,,0.00,1.000000,,2012-04-03 10:44:00,
2012-04-03 03:53:00,34.0,28.0,-100.00,ENE,61,3.0,4.0,77,0.00,,,0.00,1.000000,,2012-04-03 10:53:00,
2012-04-03 04:24:00,33.0,28.0,-100.00,ENE,63,2.0,4.0,82,0.00,,,0.00,1.000000,,2012-04-03 11:24:00,
2012-04-03 04:34:00,33.0,28.0,-100.00,ENE,63,2.0,4.0,82,0.00,,,0.00,1.000000,,2012-04-03 11:34:00,
2012-04-03 04:44:00,33.0,28.0,-100.00,ENE,63,2.0,4.0,82,0.00,,,0.00,1.000000,,2012-04-03 11:44:00,
2012-04-03 04:53:00,33.0,28.0,-100.00,ENE,63,2.0,4.0,82,0.00,,,0.00,1.000000,,2012-04-03 11:53:00,
2012-04-03 05:13:00,33.0,29.0,-100.00,ENE,70,2.0,4.0,84,0.00,,,0.00,1.000000,,2012-04-03 12:13:00,
2012-04-03 05:24:00,33.0,29.0,-100.00,ENE,70,2.0,4.0,84,0.00,,,0.00,1.000000,,2012-04-03 12:24:00,
2012-04-03 05:34:00,33.0,29.0,-100.00,ENE,70,2.0,4.0,84,0.00,,,0.00,1.000000,,2012-04-03 12:34:00,
2012-04-03 05:44:00,33.0,29.0,-100.00,ENE,70,2.0,4.0,84,0.00,,,0.00,1.000000,,2012-04-03 12:44:00,
2012-04-03 05:53:00,33.0,29.0,-100.00,ENE,70,2.0,4.0,84,0.00,,,0.00,1.000000,,2012-04-03 12:53:00,
2012-04-03 06:24:00,32.0,28.0,-100.00,ENE,75,3.0,4.0,85,0.00,,,0.00,1.000000,,2012-04-03 13:24:00,
2012-04-03 06:37:00,32.0,28.0,-100.00,ENE,75,3.0,4.0,85,0.00,,,0.00,1.000000,,2012-04-03 13:37:00,
2012-04-03 06:49:00,32.0,28.0,-100.00,ENE,75,3.0,4.0,85,0.00,,,0.00,1.000000,,2012-04-03 13:49:00,
2012-04-03 06:55:00,32.0,28.0,-100.00,ENE,75,3.0,4.0,85,0.00,,,0.00,1.000000,,2012-04-03 13:55:00,
2012-04-03 07:24:00,32.0,29.0,-100.00,East,100,2.0,5.0,89,0.00,,,0.00,2.000000,,2012-04-03 14:24:00,
2012-04-03 07:34:00,32.0,29.0,-100.00,East,100,2.0,5.0,89,0.00,,,0.00,2.000000,,2012-04-03 14:34:00,
2012-04-03 07:46:00,32.0,29.0,-100.00,East,100,2.0,5.0,89,0.00,,,0.00,2.000000,,2012-04-03 14:46:00,
2012-04-03 07:54:00,32.0,29.0,-100.00,East,100,2.0,5.0,89,0.00,,,0.00,2.000000,,2012-04-03 14:54:00,
2012-04-03 08:25:00,33.0,30.0,-100.00,East,79,2.0,4.0,87,0.00,,,-99.99,48.000000,,2012-04-03 15:25:00,
2012-04-03 08:37:00,33.0,30.0,-100.00,East,79,2.0,4.0,87,0.00,,,-99.99,48.000000,,2012-04-03 15:37:00,
2012-04-03 08:55:00,33.0,30.0,-100.00,East,79,2.0,4.0,87,0.00,,,-99.99,48.000000,,2012-04-03 15:55:00,
2012-04-03 09:14:00,39.0,32.0,-100.00,North,10,2.0,5.0,76,0.00,,,0.00,157.000000,,2012-04-03 16:14:00,
2012-04-03 09:24:00,39.0,32.0,-100.00,North,10,2.0,5.0,76,0.00,,,0.00,157.000000,,2012-04-03 16:24:00,
2012-04-03 09:38:00,39.0,32.0,-100.00,North,10,2.0,5.0,76,0.00,,,0.00,157.000000,,2012-04-03 16:38:00,
2012-04-03 09:47:00,39.0,32.0,-100.00,North,10,2.0,5.0,76,0.00,,,0.00,157.000000,,2012-04-03 16:47:00,
2012-04-03 09:55:00,39.0,32.0,-100.00,North,10,2.0,5.0,76,0.00,,,0.00,157.000000,,2012-04-03 16:55:00,
2012-04-03 10:16:00,47.0,31.0,-100.00,South,179,6.0,13.0,54,0.00,,,0.00,319.000000,,2012-04-03 17:16:00,
2012-04-03 10:26:00,47.0,31.0,-100.00,South,179,6.0,13.0,54,0.00,,,0.00,319.000000,,2012-04-03 17:26:00,
2012-04-03 10:39:00,47.0,31.0,-100.00,South,179,6.0,13.0,54,0.00,,,0.00,319.000000,,2012-04-03 17:39:00,
2012-04-03 10:49:00,47.0,31.0,-100.00,South,179,6.0,13.0,54,0.00,,,0.00,319.000000,,2012-04-03 17:49:00,
2012-04-03 10:54:00,47.0,31.0,-100.00,South,179,6.0,13.0,54,0.00,,,0.00,319.000000,,2012-04-03 17:54:00,
2012-04-03 11:18:00,47.0,27.0,-100.00,SSE,161,6.0,16.0,46,0.00,,,-99.99,423.000000,,2012-04-03 18:18:00,
2012-04-03 11:39:00,47.0,27.0,-100.00,SSE,161,6.0,16.0,46,0.00,,,-99.99,423.000000,,2012-04-03 18:39:00,
2012-04-03 11:47:00,47.0,27.0,-100.00,SSE,161,6.0,16.0,46,0.00,,,-99.99,423.000000,,2012-04-03 18:47:00,
2012-04-03 11:54:00,47.0,27.0,-100.00,SSE,161,6.0,16.0,46,0.00,,,-99.99,423.000000,,2012-04-03 18:54:00,
2012-04-03 12:25:00,50.0,23.0,-100.00,South,191,10.0,25.0,35,0.00,,,0.00,303.000000,,2012-04-03 19:25:00,
2012-04-03 12:36:00,50.0,23.0,-100.00,South,191,10.0,25.0,35,0.00,,,0.00,303.000000,,2012-04-03 19:36:00,
2012-04-03 12:47:00,50.0,23.0,-100.00,South,191,10.0,25.0,35,0.00,,,0.00,303.000000,,2012-04-03 19:47:00,
2012-04-03 12:54:00,50.0,23.0,-100.00,South,191,10.0,25.0,35,0.00,,,0.00,303.000000,,2012-04-03 19:54:00,
2012-04-03 13:24:00,52.0,27.0,-100.00,SW,225,11.0,26.0,38,0.00,,,0.00,568.000000,,2012-04-03 20:24:00,
2012-04-03 13:36:00,52.0,27.0,-100.00,SW,225,11.0,26.0,38,0.00,,,0.00,568.000000,,2012-04-03 20:36:00,
2012-04-03 13:55:00,52.0,27.0,-100.00,SW,225,11.0,26.0,38,0.00,,,0.00,568.000000,,2012-04-03 20:55:00,
2012-04-03 14:14:00,54.0,28.0,-100.00,South,191,13.0,24.0,37,0.00,,,0.00,467.000000,,2012-04-03 21:14:00,
2012-04-03 14:25:00,54.0,28.0,-100.00,South,191,13.0,24.0,37,0.00,,,0.00,467.000000,,2012-04-03 21:25:00,
2012-04-03 14:38:00,54.0,28.0,-100.00,South,191,13.0,24.0,37,0.00,,,0.00,467.000000,,2012-04-03 21:38:00,
2012-04-03 14:46:00,54.0,28.0,-100.00,South,191,13.0,24.0,37,0.00,,,0.00,467.000000,,2012-04-03 21:46:00,
2012-04-03 14:54:00,54.0,28.0,-100.00,South,191,13.0,24.0,37,0.00,,,0.00,467.000000,,2012-04-03 21:54:00,
2012-04-03 15:14:00,50.0,31.0,-100.00,SW,231,13.0,22.0,47,0.00,,,0.00,261.000000,,2012-04-03 22:14:00,
2012-04-03 15:25:00,50.0,31.0,-100.00,SW,231,13.0,22.0,47,0.00,,,0.00,261.000000,,2012-04-03 22:25:00,
2012-04-03 15:36:00,50.0,31.0,-100.00,SW,231,13.0,22.0,47,0.00,,,0.00,261.000000,,2012-04-03 22:36:00,
2012-04-03 15:46:00,50.0,31.0,-100.00,SW,231,13.0,22.0,47,0.00,,,0.00,261.000000,,2012-04-03 22:46:00,
2012-04-03 15:54:00,50.0,31.0,-100.00,SW,231,13.0,22.0,47,0.00,,,0.00,261.000000,,2012-04-03 22:54:00,
2012-04-03 15:56:00,50.0,34.0,-100.00,West,265,8.0,22.0,53,0.00,,,-99.99,465.000000,,2012-04-03 22:56:00,
2012-04-03 16:24:00,50.0,34.0,-100.00,West,265,8.0,22.0,53,0.00,,,-99.99,465.000000,,2012-04-03 23:24:00,
2012-04-03 16:47:00,50.0,34.0,-100.00,West,265,8.0,22.0,53,0.00,,,-99.99,465.000000,,2012-04-03 23:47:00,
2012-04-03 17:18:00,50.0,34.0,-100.00,WSW,241,9.0,16.0,55,0.00,,,0.00,228.000000,,2012-04-04 00:18:00,
2012-04-03 17:27:00,50.0,34.0,-100.00,WSW,241,9.0,16.0,55,0.00,,,0.00,228.000000,,2012-04-04 00:27:00,
2012-04-03 17:39:00,50.0,34.0,-100.00,WSW,241,9.0,16.0,55,0.00,,,0.00,228.000000,,2012-04-04 00:39:00,
2012-04-03 17:48:00,50.0,34.0,-100.00,WSW,241,9.0,16.0,55,0.00,,,0.00,228.000000,,2012-04-04 00:48:00,
2012-04-03 17:55:00,50.0,34.0,-100.00,WSW,241,9.0,16.0,55,0.00,,,0.00,228.000000,,2012-04-04 00:55:00,
2012-04-03 18:13:00,45.0,35.0,-100.00,WSW,254,14.0,22.0,68,0.00,,,0.00,185.000000,,2012-04-04 01:13:00,
2012-04-03 18:24:00,45.0,35.0,-100.00,WSW,254,14.0,22.0,68,0.00,,,0.00,185.000000,,2012-04-04 01:24:00,
2012-04-03 18:36:00,45.0,35.0,-100.00,WSW,254,14.0,22.0,68,0.00,,,0.00,185.000000,,2012-04-04 01:36:00,
2012-04-03 18:47:00,45.0,35.0,-100.00,WSW,254,14.0,22.0,68,0.00,,,0.00,185.000000,,2012-04-04 01:47:00,
2012-04-03 18:54:00,45.0,35.0,-100.00,WSW,254,14.0,22.0,68,0.00,,,0.00,185.000000,,2012-04-04 01:54:00,
2012-04-03 19:13:00,39.0,30.0,-100.00,WSW,253,13.0,28.0,70,0.00,,,0.00,31.000000,,2012-04-04 02:13:00,
2012-04-03 19:24:00,39.0,30.0,-100.00,WSW,253,13.0,28.0,70,0.00,,,0.00,31.000000,,2012-04-04 02:24:00,
2012-04-03 19:37:00,39.0,30.0,-100.00,WSW,253,13.0,28.0,70,0.00,,,0.00,31.000000,,2012-04-04 02:37:00,
2012-04-03 19:48:00,39.0,30.0,-100.00,WSW,253,13.0,28.0,70,0.00,,,0.00,31.000000,,2012-04-04 02:48:00,
2012-04-03 19:55:00,39.0,30.0,-100.00,WSW,253,13.0,28.0,70,0.00,,,0.00,31.000000,,2012-04-04 02:55:00,
2012-04-03 20:24:00,37.0,29.0,-100.00,WSW,254,12.0,19.0,74,0.00,,,0.00,3.000000,,2012-04-04 03:24:00,
2012-04-03 20:37:00,37.0,29.0,-100.00,WSW,254,12.0,19.0,74,0.00,,,0.00,3.000000,,2012-04-04 03:37:00,
2012-04-03 20:47:00,37.0,29.0,-100.00,WSW,254,12.0,19.0,74,0.00,,,0.00,3.000000,,2012-04-04 03:47:00,
2012-04-03 20:55:00,37.0,29.0,-100.00,WSW,254,12.0,19.0,74,0.00,,,0.00,3.000000,,2012-04-04 03:55:00,
2012-04-03 21:23:00,33.0,30.0,-100.00,North,0,7.0,19.0,90,0.00,,,0.00,1.000000,,2012-04-04 04:23:00,
2012-04-03 21:35:00,33.0,30.0,-100.00,North,0,7.0,19.0,90,0.00,,,0.00,1.000000,,2012-04-04 04:35:00,
2012-04-03 21:44:00,33.0,30.0,-100.00,North,0,7.0,19.0,90,0.00,,,0.00,1.000000,,2012-04-04 04:44:00,
2012-04-03 21:54:00,33.0,30.0,-100.00,North,0,7.0,19.0,90,0.00,,,0.00,1.000000,,2012-04-04 04:54:00,
2012-04-03 22:24:00,31.0,27.0,-100.00,WNW,297,7.0,14.0,84,0.00,,,0.00,1.000000,,2012-04-04 05:24:00,
2012-04-03 22:34:00,31.0,27.0,-100.00,WNW,297,7.0,14.0,84,0.00,,,0.00,1.000000,,2012-04-04 05:34:00,
2012-04-03 22:44:00,31.0,27.0,-100.00,WNW,297,7.0,14.0,84,0.00,,,0.00,1.000000,,2012-04-04 05:44:00,
2012-04-03 22:54:00,31.0,27.0,-100.00,WNW,297,7.0,14.0,84,0.00,,,0.00,1.000000,,2012-04-04 05:54:00,
2012-04-03 23:24:00,29.0,27.0,-100.00,WSW,242,3.0,12.0,92,0.00,,,0.00,1.000000,,2012-04-04 06:24:00,
2012-04-03 23:35:00,29.0,27.0,-100.00,WSW,242,3.0,12.0,92,0.00,,,0.00,1.000000,,2012-04-04 06:35:00,
2012-04-03 23:45:00,29.0,27.0,-100.00,WSW,242,3.0,12.0,92,0.00,,,0.00,1.000000,,2012-04-04 06:45:00,
2012-04-03 23:55:00,29.0,27.0,-100.00,WSW,242,3.0,12.0,92,0.00,,,0.00,1.000000,,2012-04-04 06:55:00,